sensor_id;sensor_type;location;lat;lon;timestamp;pressure;altitude;pressure_sealevel;temperature;humidity
62779;BME280;48821;48.796;2.396;2024-03-29T00:00:40;98890.59;;;13.05;57.89
62779;BME280;48821;48.796;2.396;2024-03-29T00:01:54;98897.66;;;13.04;57.65
62779;BME280;48821;48.796;2.396;2024-03-29T00:03:07;98890.72;;;13.03;57.89
62779;BME280;48821;48.796;2.396;2024-03-29T00:04:20;98893.34;;;13.03;57.64
62779;BME280;48821;48.796;2.396;2024-03-29T00:05:33;98888.28;;;13.00;57.42
62779;BME280;48821;48.796;2.396;2024-03-29T00:06:47;98894.41;;;13.01;57.47
62779;BME280;48821;48.796;2.396;2024-03-29T00:08:00;98899.06;;;12.97;57.41
62779;BME280;48821;48.796;2.396;2024-03-29T00:09:13;98900.03;;;12.96;57.50
62779;BME280;48821;48.796;2.396;2024-03-29T00:10:27;98910.44;;;12.98;57.99
62779;BME280;48821;48.796;2.396;2024-03-29T00:11:40;98900.13;;;12.94;57.81
62779;BME280;48821;48.796;2.396;2024-03-29T00:12:53;98895.91;;;12.92;58.19
62779;BME280;48821;48.796;2.396;2024-03-29T00:14:06;98899.53;;;12.91;58.03
62779;BME280;48821;48.796;2.396;2024-03-29T00:15:19;98899.59;;;12.89;58.10
62779;BME280;48821;48.796;2.396;2024-03-29T00:16:33;98903.09;;;12.90;58.68
62779;BME280;48821;48.796;2.396;2024-03-29T00:17:46;98906.69;;;12.89;58.66
62779;BME280;48821;48.796;2.396;2024-03-29T00:18:59;98898.03;;;12.87;58.95
62779;BME280;48821;48.796;2.396;2024-03-29T00:20:12;98889.41;;;12.85;58.92
62779;BME280;48821;48.796;2.396;2024-03-29T00:21:25;98888.66;;;12.82;59.35
62779;BME280;48821;48.796;2.396;2024-03-29T00:22:39;98897.44;;;12.83;59.55
62779;BME280;48821;48.796;2.396;2024-03-29T00:23:52;98887.09;;;12.80;59.46
62779;BME280;48821;48.796;2.396;2024-03-29T00:25:05;98889.84;;;12.78;59.58
62779;BME280;48821;48.796;2.396;2024-03-29T00:26:18;98895.22;;;12.77;59.49
62779;BME280;48821;48.796;2.396;2024-03-29T00:27:31;98891.97;;;12.73;59.73
62779;BME280;48821;48.796;2.396;2024-03-29T00:28:45;98888.72;;;12.69;59.78
62779;BME280;48821;48.796;2.396;2024-03-29T00:29:58;98889.69;;;12.68;60.36
62779;BME280;48821;48.796;2.396;2024-03-29T00:31:12;98881.84;;;12.67;60.28
62779;BME280;48821;48.796;2.396;2024-03-29T00:32:25;98885.34;;;12.67;60.14
62779;BME280;48821;48.796;2.396;2024-03-29T00:33:39;98867.94;;;12.65;60.57
62779;BME280;48821;48.796;2.396;2024-03-29T00:34:52;98875.13;;;12.63;60.40
62779;BME280;48821;48.796;2.396;2024-03-29T00:36:07;98871.91;;;12.59;60.21
62779;BME280;48821;48.796;2.396;2024-03-29T00:37:20;98873.69;;;12.58;60.37
62779;BME280;48821;48.796;2.396;2024-03-29T00:38:33;98861.44;;;12.57;60.49
62779;BME280;48821;48.796;2.396;2024-03-29T00:39:47;98852.09;;;12.53;60.27
62779;BME280;48821;48.796;2.396;2024-03-29T00:41:00;98852.41;;;12.48;60.52
62779;BME280;48821;48.796;2.396;2024-03-29T00:42:13;98853.25;;;12.49;60.39
62779;BME280;48821;48.796;2.396;2024-03-29T00:43:28;98856.63;;;12.51;60.60
62779;BME280;48821;48.796;2.396;2024-03-29T00:44:42;98852.63;;;12.45;60.54
62779;BME280;48821;48.796;2.396;2024-03-29T00:45:55;98859.47;;;12.48;60.82
62779;BME280;48821;48.796;2.396;2024-03-29T00:47:09;98851.78;;;12.45;60.70
62779;BME280;48821;48.796;2.396;2024-03-29T00:48:23;98851.78;;;12.45;60.89
62779;BME280;48821;48.796;2.396;2024-03-29T00:49:36;98852.75;;;12.44;60.40
62779;BME280;48821;48.796;2.396;2024-03-29T00:50:50;98853.69;;;12.43;60.86
62779;BME280;48821;48.796;2.396;2024-03-29T00:52:03;98849.38;;;12.42;61.01
62779;BME280;48821;48.796;2.396;2024-03-29T00:53:16;98845.06;;;12.41;60.83
62779;BME280;48821;48.796;2.396;2024-03-29T00:54:30;98834.72;;;12.37;60.95
62779;BME280;48821;48.796;2.396;2024-03-29T00:55:44;98848.63;;;12.40;60.99
62779;BME280;48821;48.796;2.396;2024-03-29T00:56:57;98850.53;;;12.37;61.21
62779;BME280;48821;48.796;2.396;2024-03-29T00:58:10;98846.22;;;12.36;61.03
62779;BME280;48821;48.796;2.396;2024-03-29T00:59:24;98840.97;;;12.36;61.18
62779;BME280;48821;48.796;2.396;2024-03-29T01:00:37;98835.91;;;12.33;61.98
62779;BME280;48821;48.796;2.396;2024-03-29T01:01:50;98831.56;;;12.32;61.57
62779;BME280;48821;48.796;2.396;2024-03-29T01:03:03;98848.22;;;12.33;61.55
62779;BME280;48821;48.796;2.396;2024-03-29T01:04:17;98845.50;;;12.34;61.42
62779;BME280;48821;48.796;2.396;2024-03-29T01:05:30;98826.31;;;12.32;61.67
62779;BME280;48821;48.796;2.396;2024-03-29T01:06:43;98826.31;;;12.32;61.93
62779;BME280;48821;48.796;2.396;2024-03-29T01:07:56;98832.53;;;12.31;61.54
62779;BME280;48821;48.796;2.396;2024-03-29T01:09:10;98846.44;;;12.33;62.17
62779;BME280;48821;48.796;2.396;2024-03-29T01:10:24;98852.75;;;12.31;62.13
62779;BME280;48821;48.796;2.396;2024-03-29T01:11:38;98839.59;;;12.31;62.21
62779;BME280;48821;48.796;2.396;2024-03-29T01:12:51;98835.06;;;12.33;62.03
62779;BME280;48821;48.796;2.396;2024-03-29T01:14:05;98837.81;;;12.31;61.99
62779;BME280;48821;48.796;2.396;2024-03-29T01:15:18;98847.50;;;12.31;62.52
62779;BME280;48821;48.796;2.396;2024-03-29T01:16:32;98852.03;;;12.29;62.26
62779;BME280;48821;48.796;2.396;2024-03-29T01:17:45;98846.78;;;12.29;62.38
62779;BME280;48821;48.796;2.396;2024-03-29T01:18:58;98838.88;;;12.29;62.48
62779;BME280;48821;48.796;2.396;2024-03-29T01:20:12;98837.28;;;12.26;62.30
62779;BME280;48821;48.796;2.396;2024-03-29T01:21:28;98833.72;;;12.27;62.46
62779;BME280;48821;48.796;2.396;2024-03-29T01:22:41;98837.28;;;12.26;62.47
62779;BME280;48821;48.796;2.396;2024-03-29T01:23:55;98845.31;;;12.24;62.79
62779;BME280;48821;48.796;2.396;2024-03-29T01:25:08;98846.25;;;12.23;62.84
62779;BME280;48821;48.796;2.396;2024-03-29T01:26:21;98844.47;;;12.24;63.07
62779;BME280;48821;48.796;2.396;2024-03-29T01:27:32;98834.13;;;12.21;63.00
62779;BME280;48821;48.796;2.396;2024-03-29T01:28:43;98842.88;;;12.21;63.01
62779;BME280;48821;48.796;2.396;2024-03-29T01:29:56;98841.09;;;12.22;63.15
62779;BME280;48821;48.796;2.396;2024-03-29T01:31:11;98855.09;;;12.22;63.33
62779;BME280;48821;48.796;2.396;2024-03-29T01:32:22;98849.00;;;12.22;63.15
62779;BME280;48821;48.796;2.396;2024-03-29T01:33:33;98846.56;;;12.19;63.37
62779;BME280;48821;48.796;2.396;2024-03-29T01:34:49;98836.03;;;12.19;63.02
62779;BME280;48821;48.796;2.396;2024-03-29T01:36:03;98848.28;;;12.20;63.56
62779;BME280;48821;48.796;2.396;2024-03-29T01:37:14;98849.22;;;12.19;63.49
62779;BME280;48821;48.796;2.396;2024-03-29T01:38:25;98838.66;;;12.19;63.38
62779;BME280;48821;48.796;2.396;2024-03-29T01:39:38;98839.63;;;12.18;63.68
62779;BME280;48821;48.796;2.396;2024-03-29T01:40:49;98839.63;;;12.18;63.61
62779;BME280;48821;48.796;2.396;2024-03-29T01:42:00;98835.31;;;12.17;63.61
62779;BME280;48821;48.796;2.396;2024-03-29T01:43:11;98837.94;;;12.17;63.25
62779;BME280;48821;48.796;2.396;2024-03-29T01:44:22;98835.31;;;12.17;63.60
62779;BME280;48821;48.796;2.396;2024-03-29T01:45:32;98845.72;;;12.18;63.76
62779;BME280;48821;48.796;2.396;2024-03-29T01:46:43;98848.34;;;12.18;63.54
62779;BME280;48821;48.796;2.396;2024-03-29T01:47:58;98844.88;;;12.18;63.86
62779;BME280;48821;48.796;2.396;2024-03-29T01:49:11;98844.88;;;12.18;63.84
62779;BME280;48821;48.796;2.396;2024-03-29T01:50:24;98843.22;;;12.17;63.68
62779;BME280;48821;48.796;2.396;2024-03-29T01:51:38;98842.38;;;12.16;63.75
62779;BME280;48821;48.796;2.396;2024-03-29T01:52:50;98827.63;;;12.13;63.59
62779;BME280;48821;48.796;2.396;2024-03-29T01:54:04;98832.69;;;12.17;63.85
62779;BME280;48821;48.796;2.396;2024-03-29T01:55:17;98831.81;;;12.16;63.55
62779;BME280;48821;48.796;2.396;2024-03-29T01:56:31;98830.97;;;12.15;63.45
62779;BME280;48821;48.796;2.396;2024-03-29T01:57:45;98824.13;;;12.13;63.55
62779;BME280;48821;48.796;2.396;2024-03-29T01:58:59;98822.34;;;12.13;63.89
62779;BME280;48821;48.796;2.396;2024-03-29T02:00:10;98832.69;;;12.17;64.10
62779;BME280;48821;48.796;2.396;2024-03-29T02:01:24;98849.31;;;12.17;64.10
62779;BME280;48821;48.796;2.396;2024-03-29T02:02:39;98847.50;;;12.18;63.65
62779;BME280;48821;48.796;2.396;2024-03-29T02:03:52;98838.88;;;12.15;63.83
62779;BME280;48821;48.796;2.396;2024-03-29T02:05:03;98832.69;;;12.17;64.03
62779;BME280;48821;48.796;2.396;2024-03-29T02:06:17;98830.97;;;12.15;64.16
62779;BME280;48821;48.796;2.396;2024-03-29T02:07:32;98829.31;;;12.14;63.96
62779;BME280;48821;48.796;2.396;2024-03-29T02:08:52;98830.13;;;12.15;63.80
62779;BME280;48821;48.796;2.396;2024-03-29T02:10:06;98829.50;;;12.11;63.65
62779;BME280;48821;48.796;2.396;2024-03-29T02:11:23;98834.59;;;12.14;63.48
62779;BME280;48821;48.796;2.396;2024-03-29T02:12:36;98835.53;;;12.13;63.85
62779;BME280;48821;48.796;2.396;2024-03-29T02:13:47;98824.03;;;12.14;63.72
62779;BME280;48821;48.796;2.396;2024-03-29T02:15:01;98830.97;;;12.15;63.64
62779;BME280;48821;48.796;2.396;2024-03-29T02:16:15;98827.41;;;12.17;63.51
62779;BME280;48821;48.796;2.396;2024-03-29T02:17:29;98832.69;;;12.17;63.56
62779;BME280;48821;48.796;2.396;2024-03-29T02:18:42;98838.66;;;12.19;63.51
62779;BME280;48821;48.796;2.396;2024-03-29T02:19:55;98834.34;;;12.18;63.85
62779;BME280;48821;48.796;2.396;2024-03-29T02:21:08;98832.56;;;12.18;63.76
62779;BME280;48821;48.796;2.396;2024-03-29T02:22:22;98826.34;;;12.19;63.72
62779;BME280;48821;48.796;2.396;2024-03-29T02:23:40;98836.16;;;12.17;63.64
62779;BME280;48821;48.796;2.396;2024-03-29T02:24:56;98846.56;;;12.19;63.94
62779;BME280;48821;48.796;2.396;2024-03-29T02:26:10;98839.72;;;12.16;63.67
62779;BME280;48821;48.796;2.396;2024-03-29T02:27:23;98842.16;;;12.19;63.52
62779;BME280;48821;48.796;2.396;2024-03-29T02:28:37;98855.53;;;12.16;63.86
62779;BME280;48821;48.796;2.396;2024-03-29T02:29:50;98851.00;;;12.18;63.53
62779;BME280;48821;48.796;2.396;2024-03-29T02:31:04;98851.84;;;12.19;63.31
62779;BME280;48821;48.796;2.396;2024-03-29T02:32:17;98851.84;;;12.19;63.52
62779;BME280;48821;48.796;2.396;2024-03-29T02:33:30;98853.53;;;12.20;63.29
62779;BME280;48821;48.796;2.396;2024-03-29T02:34:44;98836.97;;;12.18;63.34
62779;BME280;48821;48.796;2.396;2024-03-29T02:35:57;98827.41;;;12.17;63.51
62779;BME280;48821;48.796;2.396;2024-03-29T02:37:10;98830.03;;;12.17;63.33
62779;BME280;48821;48.796;2.396;2024-03-29T02:38:23;98841.31;;;12.19;63.56
62779;BME280;48821;48.796;2.396;2024-03-29T02:39:37;98839.63;;;12.18;63.80
62779;BME280;48821;48.796;2.396;2024-03-29T02:40:50;98840.38;;;12.20;64.01
62779;BME280;48821;48.796;2.396;2024-03-29T02:42:03;98845.72;;;12.18;63.88
62779;BME280;48821;48.796;2.396;2024-03-29T02:43:13;98837.75;;;12.20;63.69
62779;BME280;48821;48.796;2.396;2024-03-29T02:44:25;98854.28;;;12.22;63.98
62779;BME280;48821;48.796;2.396;2024-03-29T02:45:38;98845.53;;;12.21;64.02
62779;BME280;48821;48.796;2.396;2024-03-29T02:46:51;98838.56;;;12.20;63.93
62779;BME280;48821;48.796;2.396;2024-03-29T02:48:04;98837.50;;;12.23;63.79
62779;BME280;48821;48.796;2.396;2024-03-29T02:49:17;98845.31;;;12.24;63.73
62779;BME280;48821;48.796;2.396;2024-03-29T02:50:31;98856.66;;;12.25;63.87
62779;BME280;48821;48.796;2.396;2024-03-29T02:51:44;98860.25;;;12.24;63.82
62779;BME280;48821;48.796;2.396;2024-03-29T02:52:57;98856.66;;;12.25;63.93
62779;BME280;48821;48.796;2.396;2024-03-29T02:54:10;98866.06;;;12.29;64.09
62779;BME280;48821;48.796;2.396;2024-03-29T02:55:24;98860.88;;;12.27;64.07
62779;BME280;48821;48.796;2.396;2024-03-29T02:56:37;98865.09;;;12.30;63.97
62779;BME280;48821;48.796;2.396;2024-03-29T02:57:50;98863.41;;;12.29;63.82
62779;BME280;48821;48.796;2.396;2024-03-29T02:59:03;98864.34;;;12.28;63.89
62779;BME280;48821;48.796;2.396;2024-03-29T03:00:16;98857.31;;;12.29;63.82
62779;BME280;48821;48.796;2.396;2024-03-29T03:01:30;98865.94;;;12.31;64.23
62779;BME280;48821;48.796;2.396;2024-03-29T03:02:43;98869.31;;;12.33;63.81
62779;BME280;48821;48.796;2.396;2024-03-29T03:03:56;98874.47;;;12.34;63.64
62779;BME280;48821;48.796;2.396;2024-03-29T03:05:09;98878.06;;;12.33;63.95
62779;BME280;48821;48.796;2.396;2024-03-29T03:06:22;98873.50;;;12.35;64.02
62779;BME280;48821;48.796;2.396;2024-03-29T03:07:36;98892.59;;;12.39;64.06
62779;BME280;48821;48.796;2.396;2024-03-29T03:09:07;98881.09;;;12.40;64.14
62779;BME280;48821;48.796;2.396;2024-03-29T03:10:48;98874.88;;;12.41;64.05
62779;BME280;48821;48.796;2.396;2024-03-29T03:12:14;98873.69;;;12.45;63.91
62779;BME280;48821;48.796;2.396;2024-03-29T03:13:29;98874.56;;;12.46;64.47
62779;BME280;48821;48.796;2.396;2024-03-29T03:14:42;98868.34;;;12.47;63.56
62779;BME280;48821;48.796;2.396;2024-03-29T03:15:56;98862.09;;;12.48;63.96
62779;BME280;48821;48.796;2.396;2024-03-29T03:17:09;98862.94;;;12.48;64.10
62779;BME280;48821;48.796;2.396;2024-03-29T03:18:22;98878.44;;;12.53;63.95
62779;BME280;48821;48.796;2.396;2024-03-29T03:19:36;98877.59;;;12.53;64.12
62779;BME280;48821;48.796;2.396;2024-03-29T03:20:53;98872.81;;;12.58;63.99
62779;BME280;48821;48.796;2.396;2024-03-29T03:22:06;98868.50;;;12.57;63.77
62779;BME280;48821;48.796;2.396;2024-03-29T03:23:20;98881.47;;;12.60;63.89
62779;BME280;48821;48.796;2.396;2024-03-29T03:24:33;98879.56;;;12.62;63.94
62779;BME280;48821;48.796;2.396;2024-03-29T03:25:54;98874.41;;;12.60;64.08
62779;BME280;48821;48.796;2.396;2024-03-29T03:27:07;98881.25;;;12.63;64.11
62779;BME280;48821;48.796;2.396;2024-03-29T03:28:21;98887.25;;;12.65;64.36
62779;BME280;48821;48.796;2.396;2024-03-29T03:29:34;98886.19;;;12.68;64.14
62779;BME280;48821;48.796;2.396;2024-03-29T03:30:51;98888.63;;;12.71;63.56
62779;BME280;48821;48.796;2.396;2024-03-29T03:32:05;98885.25;;;12.69;64.29
62779;BME280;48821;48.796;2.396;2024-03-29T03:33:19;98891.97;;;12.73;64.06
62779;BME280;48821;48.796;2.396;2024-03-29T03:34:32;98890.28;;;12.72;63.85
62779;BME280;48821;48.796;2.396;2024-03-29T03:35:46;98893.44;;;12.77;63.88
62779;BME280;48821;48.796;2.396;2024-03-29T03:36:59;98892.28;;;12.81;64.30
62779;BME280;48821;48.796;2.396;2024-03-29T03:38:13;98889.66;;;12.81;64.12
62779;BME280;48821;48.796;2.396;2024-03-29T03:39:26;98891.31;;;12.82;63.96
62779;BME280;48821;48.796;2.396;2024-03-29T03:40:39;98898.16;;;12.85;64.51
62779;BME280;48821;48.796;2.396;2024-03-29T03:41:53;98904.06;;;12.89;64.08
62779;BME280;48821;48.796;2.396;2024-03-29T03:43:06;98896.97;;;12.89;64.34
62779;BME280;48821;48.796;2.396;2024-03-29T03:44:20;98899.53;;;12.91;64.13
62779;BME280;48821;48.796;2.396;2024-03-29T03:45:39;98903.72;;;12.93;64.11
62779;BME280;48821;48.796;2.396;2024-03-29T03:46:52;98900.25;;;12.93;64.02
62779;BME280;48821;48.796;2.396;2024-03-29T03:48:10;98897.59;;;12.93;64.04
62779;BME280;48821;48.796;2.396;2024-03-29T03:49:24;98892.34;;;12.93;63.91
62779;BME280;48821;48.796;2.396;2024-03-29T03:50:38;98897.16;;;12.99;64.03
62779;BME280;48821;48.796;2.396;2024-03-29T03:51:51;98903.25;;;13.00;63.71
62779;BME280;48821;48.796;2.396;2024-03-29T03:53:04;98897.16;;;12.99;64.16
62779;BME280;48821;48.796;2.396;2024-03-29T03:54:17;98896.94;;;13.02;63.95
62779;BME280;48821;48.796;2.396;2024-03-29T03:55:30;98898.63;;;13.03;63.71
62779;BME280;48821;48.796;2.396;2024-03-29T03:56:43;98905.47;;;13.06;64.38
62779;BME280;48821;48.796;2.396;2024-03-29T03:57:57;98904.50;;;13.07;64.22
62779;BME280;48821;48.796;2.396;2024-03-29T03:59:10;98905.56;;;13.04;64.10
62779;BME280;48821;48.796;2.396;2024-03-29T04:00:23;98911.56;;;13.07;64.32
62779;BME280;48821;48.796;2.396;2024-03-29T04:01:36;98919.47;;;13.07;64.07
62779;BME280;48821;48.796;2.396;2024-03-29T04:02:50;98927.91;;;13.12;64.12
62779;BME280;48821;48.796;2.396;2024-03-29T04:04:03;98936.66;;;13.12;63.93
62779;BME280;48821;48.796;2.396;2024-03-29T04:05:17;98938.34;;;13.13;64.02
62779;BME280;48821;48.796;2.396;2024-03-29T04:06:31;98934.88;;;13.13;64.15
62779;BME280;48821;48.796;2.396;2024-03-29T04:07:45;98945.22;;;13.16;64.28
62779;BME280;48821;48.796;2.396;2024-03-29T04:08:58;98938.03;;;13.18;64.20
62779;BME280;48821;48.796;2.396;2024-03-29T04:10:12;98937.03;;;13.19;64.29
62779;BME280;48821;48.796;2.396;2024-03-29T04:11:25;98931.91;;;13.18;64.22
62779;BME280;48821;48.796;2.396;2024-03-29T04:12:40;98938.63;;;13.22;63.92
62779;BME280;48821;48.796;2.396;2024-03-29T04:13:53;98923.84;;;13.19;64.12
62779;BME280;48821;48.796;2.396;2024-03-29T04:15:07;98935.97;;;13.22;63.76
62779;BME280;48821;48.796;2.396;2024-03-29T04:16:20;98950.88;;;13.23;63.72
62779;BME280;48821;48.796;2.396;2024-03-29T04:17:34;98948.97;;;13.25;63.70
62779;BME280;48821;48.796;2.396;2024-03-29T04:18:48;98950.66;;;13.26;63.92
62779;BME280;48821;48.796;2.396;2024-03-29T04:20:01;98952.44;;;13.25;63.69
62779;BME280;48821;48.796;2.396;2024-03-29T04:21:14;98956.53;;;13.30;63.84
62779;BME280;48821;48.796;2.396;2024-03-29T04:22:28;98954.63;;;13.32;63.80
62779;BME280;48821;48.796;2.396;2024-03-29T04:23:41;98957.97;;;13.34;63.62
62779;BME280;48821;48.796;2.396;2024-03-29T04:24:54;98962.31;;;13.35;63.72
62779;BME280;48821;48.796;2.396;2024-03-29T04:26:08;98964.75;;;13.38;63.67
62779;BME280;48821;48.796;2.396;2024-03-29T04:27:21;98966.41;;;13.39;63.79
62779;BME280;48821;48.796;2.396;2024-03-29T04:28:34;98966.41;;;13.39;63.61
62779;BME280;48821;48.796;2.396;2024-03-29T04:29:50;98977.69;;;13.41;63.96
62779;BME280;48821;48.796;2.396;2024-03-29T04:31:04;98983.72;;;13.43;64.15
62779;BME280;48821;48.796;2.396;2024-03-29T04:32:17;98979.25;;;13.44;64.23
62779;BME280;48821;48.796;2.396;2024-03-29T04:33:30;98980.31;;;13.41;63.85
62779;BME280;48821;48.796;2.396;2024-03-29T04:34:47;98984.53;;;13.44;63.87
62779;BME280;48821;48.796;2.396;2024-03-29T04:36:04;98978.44;;;13.43;64.06
62779;BME280;48821;48.796;2.396;2024-03-29T04:37:17;98977.59;;;13.43;64.09
62779;BME280;48821;48.796;2.396;2024-03-29T04:38:31;98972.53;;;13.39;64.06
62779;BME280;48821;48.796;2.396;2024-03-29T04:39:45;98977.69;;;13.41;64.03
62779;BME280;48821;48.796;2.396;2024-03-29T04:40:59;98975.16;;;13.39;64.01
62779;BME280;48821;48.796;2.396;2024-03-29T04:42:12;98981.28;;;13.40;64.10
62779;BME280;48821;48.796;2.396;2024-03-29T04:43:27;98986.56;;;13.40;64.43
62779;BME280;48821;48.796;2.396;2024-03-29T04:44:40;98982.97;;;13.41;64.30
62779;BME280;48821;48.796;2.396;2024-03-29T04:46:06;98985.59;;;13.41;64.45
62779;BME280;48821;48.796;2.396;2024-03-29T04:47:22;98982.97;;;13.41;64.42
62779;BME280;48821;48.796;2.396;2024-03-29T04:48:36;98992.56;;;13.42;64.28
62779;BME280;48821;48.796;2.396;2024-03-29T04:49:49;98979.50;;;13.41;64.20
62779;BME280;48821;48.796;2.396;2024-03-29T04:51:03;98995.34;;;13.41;64.25
62779;BME280;48821;48.796;2.396;2024-03-29T04:52:16;98989.22;;;13.40;64.41
62779;BME280;48821;48.796;2.396;2024-03-29T04:53:30;98989.22;;;13.40;64.11
62779;BME280;48821;48.796;2.396;2024-03-29T04:54:43;98989.22;;;13.40;64.27
62779;BME280;48821;48.796;2.396;2024-03-29T04:55:57;98990.88;;;13.41;63.96
62779;BME280;48821;48.796;2.396;2024-03-29T04:57:11;98995.22;;;13.42;63.84
62779;BME280;48821;48.796;2.396;2024-03-29T04:58:26;98998.06;;;13.39;64.06
62779;BME280;48821;48.796;2.396;2024-03-29T04:59:39;98994.50;;;13.40;64.20
62779;BME280;48821;48.796;2.396;2024-03-29T05:00:52;98990.88;;;13.41;64.36
62779;BME280;48821;48.796;2.396;2024-03-29T05:02:06;98989.31;;;13.38;64.15
62779;BME280;48821;48.796;2.396;2024-03-29T05:03:19;98996.16;;;13.41;64.18
62779;BME280;48821;48.796;2.396;2024-03-29T05:04:33;98991.84;;;13.40;64.21
62779;BME280;48821;48.796;2.396;2024-03-29T05:05:48;99000.72;;;13.39;64.37
62779;BME280;48821;48.796;2.396;2024-03-29T05:07:01;99006.72;;;13.41;64.30
62779;BME280;48821;48.796;2.396;2024-03-29T05:08:14;99005.66;;;13.44;64.17
62779;BME280;48821;48.796;2.396;2024-03-29T05:09:28;99011.91;;;13.43;64.38
62779;BME280;48821;48.796;2.396;2024-03-29T05:10:42;99003.97;;;13.43;64.26
62779;BME280;48821;48.796;2.396;2024-03-29T05:11:55;98999.66;;;13.42;64.39
62779;BME280;48821;48.796;2.396;2024-03-29T05:13:08;99008.19;;;13.45;64.30
62779;BME280;48821;48.796;2.396;2024-03-29T05:14:21;99009.25;;;13.43;64.07
62779;BME280;48821;48.796;2.396;2024-03-29T05:15:35;99002.91;;;13.45;64.09
62779;BME280;48821;48.796;2.396;2024-03-29T05:16:48;99005.66;;;13.44;64.17
62779;BME280;48821;48.796;2.396;2024-03-29T05:18:02;99006.28;;;13.47;64.51
62779;BME280;48821;48.796;2.396;2024-03-29T05:19:16;99002.91;;;13.45;64.16
62779;BME280;48821;48.796;2.396;2024-03-29T05:20:30;99007.00;;;13.49;64.30
62779;BME280;48821;48.796;2.396;2024-03-29T05:21:43;99007.00;;;13.49;64.09
62779;BME280;48821;48.796;2.396;2024-03-29T05:22:58;99013.13;;;13.50;64.17
62779;BME280;48821;48.796;2.396;2024-03-29T05:24:11;99013.22;;;13.48;64.45
62779;BME280;48821;48.796;2.396;2024-03-29T05:25:25;99014.06;;;13.49;64.47
62779;BME280;48821;48.796;2.396;2024-03-29T05:26:38;99020.19;;;13.49;64.17
62779;BME280;48821;48.796;2.396;2024-03-29T05:27:52;99032.47;;;13.50;64.40
62779;BME280;48821;48.796;2.396;2024-03-29T05:29:05;99038.69;;;13.49;64.61
62779;BME280;48821;48.796;2.396;2024-03-29T05:30:20;99040.25;;;13.52;64.03
62779;BME280;48821;48.796;2.396;2024-03-29T05:31:33;99029.81;;;13.50;64.34
62779;BME280;48821;48.796;2.396;2024-03-29T05:32:46;99034.97;;;13.52;64.29
62779;BME280;48821;48.796;2.396;2024-03-29T05:33:59;99039.41;;;13.52;64.44
62779;BME280;48821;48.796;2.396;2024-03-29T05:35:13;99046.38;;;13.53;64.58
62779;BME280;48821;48.796;2.396;2024-03-29T05:36:30;99048.28;;;13.50;64.46
62779;BME280;48821;48.796;2.396;2024-03-29T05:37:43;99052.72;;;13.50;64.53
62779;BME280;48821;48.796;2.396;2024-03-29T05:39:02;99045.53;;;13.52;64.45
62779;BME280;48821;48.796;2.396;2024-03-29T05:40:16;99048.06;;;13.54;64.57
62779;BME280;48821;48.796;2.396;2024-03-29T05:41:29;99046.25;;;13.54;64.43
62779;BME280;48821;48.796;2.396;2024-03-29T05:42:44;99049.75;;;13.55;64.40
62779;BME280;48821;48.796;2.396;2024-03-29T05:43:58;99054.31;;;13.53;64.18
62779;BME280;48821;48.796;2.396;2024-03-29T05:45:30;99056.94;;;13.53;64.67
62779;BME280;48821;48.796;2.396;2024-03-29T05:46:44;99058.00;;;13.50;64.67
62779;BME280;48821;48.796;2.396;2024-03-29T05:47:58;99055.38;;;13.50;64.66
62779;BME280;48821;48.796;2.396;2024-03-29T05:49:11;99053.56;;;13.50;64.62
62779;BME280;48821;48.796;2.396;2024-03-29T05:50:25;99054.41;;;13.51;64.38
62779;BME280;48821;48.796;2.396;2024-03-29T05:51:38;99045.66;;;13.50;64.72
62779;BME280;48821;48.796;2.396;2024-03-29T05:52:52;99055.38;;;13.50;64.29
62779;BME280;48821;48.796;2.396;2024-03-29T05:54:05;99046.81;;;13.46;64.35
62779;BME280;48821;48.796;2.396;2024-03-29T05:55:18;99053.56;;;13.50;64.54
62779;BME280;48821;48.796;2.396;2024-03-29T05:56:32;99051.88;;;13.49;64.58
62779;BME280;48821;48.796;2.396;2024-03-29T05:57:45;99043.97;;;13.49;64.25
62779;BME280;48821;48.796;2.396;2024-03-29T05:58:58;99042.50;;;13.45;64.49
62779;BME280;48821;48.796;2.396;2024-03-29T06:00:12;99039.03;;;13.45;64.05
62779;BME280;48821;48.796;2.396;2024-03-29T06:01:29;99043.22;;;13.47;64.38
62779;BME280;48821;48.796;2.396;2024-03-29T06:02:43;99042.38;;;13.47;63.91
62779;BME280;48821;48.796;2.396;2024-03-29T06:03:58;99039.88;;;13.45;64.21
62779;BME280;48821;48.796;2.396;2024-03-29T06:05:17;99048.72;;;13.44;64.03
62779;BME280;48821;48.796;2.396;2024-03-29T06:06:30;99047.78;;;13.45;63.74
62779;BME280;48821;48.796;2.396;2024-03-29T06:07:43;99049.34;;;13.48;64.02
62779;BME280;48821;48.796;2.396;2024-03-29T06:08:57;99053.78;;;13.47;63.89
62779;BME280;48821;48.796;2.396;2024-03-29T06:10:10;99052.09;;;13.46;63.81
62779;BME280;48821;48.796;2.396;2024-03-29T06:11:23;99053.06;;;13.45;64.01
62779;BME280;48821;48.796;2.396;2024-03-29T06:12:36;99054.84;;;13.45;64.18
62779;BME280;48821;48.796;2.396;2024-03-29T06:13:51;99049.56;;;13.45;64.14
62779;BME280;48821;48.796;2.396;2024-03-29T06:15:07;99047.88;;;13.44;63.81
62779;BME280;48821;48.796;2.396;2024-03-29T06:16:39;99051.47;;;13.43;63.73
62779;BME280;48821;48.796;2.396;2024-03-29T06:18:11;99060.25;;;13.43;63.97
62779;BME280;48821;48.796;2.396;2024-03-29T06:19:26;99069.84;;;13.44;63.86
62779;BME280;48821;48.796;2.396;2024-03-29T06:20:40;99062.25;;;13.39;64.02
62779;BME280;48821;48.796;2.396;2024-03-29T06:21:53;99062.03;;;13.43;63.93
62779;BME280;48821;48.796;2.396;2024-03-29T06:23:06;99059.41;;;13.43;63.94
62779;BME280;48821;48.796;2.396;2024-03-29T06:24:20;99054.22;;;13.41;64.07
62779;BME280;48821;48.796;2.396;2024-03-29T06:25:33;99050.00;;;13.38;64.08
62779;BME280;48821;48.796;2.396;2024-03-29T06:26:46;99046.31;;;13.41;64.22
62779;BME280;48821;48.796;2.396;2024-03-29T06:27:59;99038.28;;;13.43;64.31
62779;BME280;48821;48.796;2.396;2024-03-29T06:29:13;99043.66;;;13.41;64.31
62779;BME280;48821;48.796;2.396;2024-03-29T06:30:26;99042.00;;;13.40;64.34
62779;BME280;48821;48.796;2.396;2024-03-29T06:31:40;99040.94;;;13.43;64.13